createdAt,value
2018-09-13T00:00:49.322Z,99.90
2018-09-13T00:03:20.240Z,99.90
2018-09-13T00:05:51.538Z,99.90
2018-09-13T00:08:22.527Z,99.90
2018-09-13T00:10:53.629Z,99.90
2018-09-13T00:13:24.660Z,99.90
2018-09-13T00:15:55.340Z,99.90
2018-09-13T00:18:32.093Z,99.90
2018-09-13T00:21:05.230Z,99.90
2018-09-13T00:23:38.472Z,99.90
2018-09-13T00:26:09.235Z,99.90
2018-09-13T00:28:40.133Z,99.90
2018-09-13T00:31:13.944Z,99.90
2018-09-13T00:33:45.247Z,99.90
2018-09-13T00:36:16.275Z,99.90
2018-09-13T00:38:48.689Z,99.90
2018-09-13T00:41:19.742Z,99.90
2018-09-13T00:43:50.724Z,99.90
2018-09-13T00:46:26.479Z,99.90
2018-09-13T00:48:57.674Z,99.90
2018-09-13T00:51:28.560Z,99.90
2018-09-13T00:54:01.405Z,99.90
2018-09-13T00:56:34.815Z,99.90
2018-09-13T00:59:06.791Z,99.90
2018-09-13T01:01:37.711Z,99.90
2018-09-13T01:04:08.625Z,99.90
2018-09-13T01:06:39.771Z,99.90
2018-09-13T01:09:15.021Z,99.90
2018-09-13T01:11:45.998Z,99.90
2018-09-13T01:14:16.892Z,99.90
2018-09-13T01:16:47.552Z,99.90
2018-09-13T01:19:18.597Z,99.90
2018-09-13T01:21:49.427Z,99.90
2018-09-13T01:24:20.499Z,99.90
2018-09-13T01:26:51.430Z,99.90
2018-09-13T01:29:22.317Z,99.90
2018-09-13T01:31:53.052Z,99.90
2018-09-13T01:34:23.836Z,99.90
2018-09-13T01:36:54.511Z,99.90
2018-09-13T01:39:25.684Z,99.90
2018-09-13T01:41:56.393Z,99.90
2018-09-13T01:44:27.339Z,99.90
2018-09-13T01:46:58.214Z,99.90
2018-09-13T01:49:29.140Z,99.90
2018-09-13T01:52:00.032Z,99.90
2018-09-13T01:54:31.004Z,99.90
2018-09-13T01:57:02.004Z,99.90
2018-09-13T01:59:33.185Z,99.90
2018-09-13T02:02:05.068Z,99.90
2018-09-13T02:04:36.140Z,99.90
2018-09-13T02:07:07.127Z,99.90
2018-09-13T02:09:37.532Z,99.90
2018-09-13T02:12:07.872Z,99.90
2018-09-13T02:14:38.301Z,99.90
2018-09-13T02:17:08.560Z,99.90
2018-09-13T02:19:38.911Z,99.90
2018-09-13T02:22:09.257Z,99.90
2018-09-13T02:24:39.612Z,99.90
2018-09-13T02:27:11.503Z,99.90
2018-09-13T02:29:41.751Z,99.90
2018-09-13T02:32:12.028Z,99.90
2018-09-13T02:34:42.510Z,99.90
2018-09-13T02:37:12.870Z,99.90
2018-09-13T02:39:43.252Z,99.90
2018-09-13T02:42:13.674Z,99.90
2018-09-13T02:44:44.039Z,99.90
2018-09-13T02:47:14.892Z,99.90
2018-09-13T02:49:45.585Z,99.90
2018-09-13T02:52:16.525Z,99.90
2018-09-13T02:54:47.476Z,99.90
2018-09-13T02:57:18.148Z,99.90
2018-09-13T02:59:49.083Z,99.90
2018-09-13T03:02:20.031Z,99.90
2018-09-13T03:04:50.902Z,99.90
2018-09-13T03:07:23.060Z,99.90
2018-09-13T03:09:53.365Z,99.90
2018-09-13T03:12:24.139Z,99.90
2018-09-13T03:14:55.199Z,99.90
2018-09-13T03:17:25.836Z,99.90
2018-09-13T03:19:56.560Z,99.90
2018-09-13T03:22:27.220Z,99.90
2018-09-13T03:24:58.339Z,99.90
2018-09-13T03:27:29.346Z,99.90
2018-09-13T03:30:00.512Z,99.90
2018-09-13T03:32:31.272Z,99.90
2018-09-13T03:35:02.275Z,99.90
2018-09-13T03:37:32.917Z,99.90
2018-09-13T03:40:03.823Z,99.90
2018-09-13T03:42:34.581Z,99.90
2018-09-13T03:45:05.389Z,99.90
2018-09-13T03:47:36.636Z,99.90
2018-09-13T03:50:07.575Z,99.90
2018-09-13T03:52:38.337Z,99.90
2018-09-13T03:55:09.441Z,99.90
2018-09-13T03:57:40.406Z,99.90
2018-09-13T04:00:11.071Z,99.90
2018-09-13T04:02:41.998Z,99.90
2018-09-13T04:05:12.786Z,99.90
2018-09-13T04:07:43.703Z,99.90
2018-09-13T04:10:14.380Z,99.90
2018-09-13T04:12:45.632Z,99.90
2018-09-13T04:15:16.428Z,99.90
2018-09-13T04:17:47.790Z,99.90
2018-09-13T04:20:19.434Z,99.90
2018-09-13T04:22:50.405Z,99.90
2018-09-13T04:25:21.183Z,99.90
2018-09-13T04:27:55.694Z,99.90
2018-09-13T04:30:26.466Z,99.90
2018-09-13T04:32:57.721Z,99.90
2018-09-13T04:35:28.499Z,99.90
2018-09-13T04:37:59.369Z,99.90
2018-09-13T04:40:30.225Z,99.90
2018-09-13T04:43:01.078Z,99.90
2018-09-13T04:45:31.896Z,99.90
2018-09-13T04:48:03.295Z,99.90
2018-09-13T04:50:34.041Z,99.90
2018-09-13T04:53:04.955Z,99.90
2018-09-13T04:55:35.622Z,99.90
2018-09-13T04:58:06.522Z,99.90
2018-09-13T05:00:37.404Z,99.90
2018-09-13T05:03:08.297Z,99.90
2018-09-13T05:05:39.203Z,99.90
2018-09-13T05:08:10.512Z,99.90
2018-09-13T05:10:41.283Z,99.90
2018-09-13T05:13:12.035Z,99.90
2018-09-13T05:15:42.932Z,99.90
2018-09-13T05:18:13.670Z,99.90
2018-09-13T05:20:44.494Z,99.90
2018-09-13T05:23:15.490Z,99.90
2018-09-13T05:25:46.621Z,99.90
2018-09-13T05:28:17.960Z,99.90
2018-09-13T05:30:48.760Z,99.90
2018-09-13T05:33:23.865Z,99.90
2018-09-13T05:35:56.429Z,99.90
2018-09-13T05:38:27.347Z,99.90
2018-09-13T05:40:58.111Z,99.90
2018-09-13T05:43:29.209Z,99.90
2018-09-13T05:45:59.968Z,99.90
2018-09-13T05:48:30.975Z,99.90
2018-09-13T05:51:02.222Z,99.90
2018-09-13T05:53:33.025Z,99.90
2018-09-13T05:56:03.731Z,99.90
2018-09-13T05:58:35.087Z,99.90
2018-09-13T06:01:05.975Z,99.90
2018-09-13T06:03:36.922Z,99.90
2018-09-13T06:06:07.687Z,99.90
2018-09-13T06:08:38.994Z,99.90
2018-09-13T06:11:09.752Z,99.90
2018-09-13T06:13:40.707Z,99.90
2018-09-13T06:16:14.273Z,99.90
2018-09-13T06:18:45.163Z,99.90
2018-09-13T06:21:17.551Z,99.90
2018-09-13T06:23:48.411Z,99.90
2018-09-13T06:26:23.211Z,99.90
2018-09-13T06:28:57.177Z,99.90
2018-09-13T06:31:28.753Z,99.90
2018-09-13T06:34:00.751Z,99.90
2018-09-13T06:36:31.937Z,99.90
2018-09-13T06:39:02.893Z,99.90
2018-09-13T06:41:33.800Z,99.90
2018-09-13T06:44:04.804Z,99.90
2018-09-13T06:46:36.188Z,99.90
2018-09-13T06:49:07.852Z,99.90
2018-09-13T06:51:38.479Z,99.90
2018-09-13T06:54:18.403Z,99.90
2018-09-13T06:56:49.070Z,99.90
2018-09-13T06:59:19.983Z,99.90
2018-09-13T07:01:55.571Z,99.90
2018-09-13T07:04:26.441Z,99.90
2018-09-13T07:06:57.238Z,99.90
2018-09-13T07:09:33.831Z,99.90
2018-09-13T07:12:07.357Z,99.90
2018-09-13T07:14:38.544Z,99.90
2018-09-13T07:17:09.311Z,99.90
2018-09-13T07:19:40.214Z,99.90
2018-09-13T07:22:11.172Z,99.90
2018-09-13T07:24:42.103Z,99.90
2018-09-13T07:27:14.376Z,99.90
2018-09-13T07:29:51.334Z,99.90
2018-09-13T07:32:22.220Z,99.90
2018-09-13T07:34:53.150Z,99.90
2018-09-13T07:37:23.887Z,99.90
2018-09-13T07:39:57.244Z,99.90
2018-09-13T07:42:29.749Z,99.90
2018-09-13T07:45:04.164Z,99.90
2018-09-13T07:47:35.755Z,99.90
2018-09-13T07:50:07.049Z,99.90
2018-09-13T07:52:37.931Z,99.90
2018-09-13T07:55:08.834Z,99.90
2018-09-13T07:57:39.707Z,99.90
2018-09-13T08:00:10.581Z,99.90
2018-09-13T08:02:41.372Z,99.90
2018-09-13T08:05:12.448Z,99.90
2018-09-13T08:07:44.107Z,99.90
2018-09-13T08:10:19.304Z,99.90
2018-09-13T08:12:51.292Z,99.90
2018-09-13T08:15:22.784Z,99.90
2018-09-13T08:17:55.562Z,99.90
2018-09-13T08:20:27.526Z,99.90
2018-09-13T08:22:58.270Z,99.90
2018-09-13T08:25:29.128Z,99.90
2018-09-13T08:27:59.763Z,99.90
2018-09-13T08:30:32.463Z,99.90
2018-09-13T08:33:03.320Z,99.90
2018-09-13T08:35:36.525Z,99.90
2018-09-13T08:38:07.335Z,99.90
2018-09-13T08:40:38.887Z,99.90
2018-09-13T08:43:09.676Z,99.90
2018-09-13T08:45:40.539Z,99.90
2018-09-13T08:48:11.331Z,99.90
2018-09-13T08:50:47.583Z,99.90
2018-09-13T08:53:18.496Z,99.90
2018-09-13T08:55:49.387Z,99.90
2018-09-13T08:58:20.050Z,99.90
2018-09-13T09:00:51.195Z,99.90
2018-09-13T09:03:24.349Z,99.90
2018-09-13T09:05:58.154Z,99.90
2018-09-13T09:08:29.689Z,99.90
2018-09-13T09:11:03.567Z,99.90
2018-09-13T09:13:35.229Z,99.90
2018-09-13T09:16:06.459Z,99.90
2018-09-13T09:18:37.350Z,99.90
2018-09-13T09:21:10.257Z,99.90
2018-09-13T09:23:41.009Z,99.90
2018-09-13T09:26:11.724Z,99.90
2018-09-13T09:28:42.809Z,99.90
2018-09-13T09:31:13.737Z,99.90
2018-09-13T09:33:44.393Z,99.90
2018-09-13T09:36:15.193Z,99.90
2018-09-13T09:38:45.928Z,99.90
2018-09-13T09:41:18.530Z,99.90
2018-09-13T09:43:50.041Z,99.90
2018-09-13T09:46:21.989Z,99.90
2018-09-13T09:48:53.679Z,99.90
2018-09-13T09:51:24.639Z,99.90
2018-09-13T09:53:56.424Z,99.90
2018-09-13T09:56:27.352Z,99.90
2018-09-13T09:58:58.117Z,99.90
2018-09-13T10:01:35.619Z,99.90
2018-09-13T10:04:08.946Z,99.90
2018-09-13T10:06:39.698Z,99.90
2018-09-13T10:09:10.523Z,99.90
2018-09-13T10:11:45.090Z,99.90
2018-09-13T10:14:15.716Z,99.90
2018-09-13T10:16:50.915Z,99.90
2018-09-13T10:19:27.643Z,99.90
2018-09-13T10:22:02.796Z,99.90
2018-09-13T10:24:37.690Z,99.90
2018-09-13T10:27:14.063Z,99.90
2018-09-13T10:29:49.179Z,99.90
2018-09-13T10:32:25.792Z,99.90
2018-09-13T10:35:01.410Z,99.90
2018-09-13T10:37:36.562Z,99.90
2018-09-13T10:40:11.748Z,99.90
2018-09-13T10:44:49.427Z,99.90
2018-09-13T10:47:24.573Z,99.90
2018-09-13T10:49:59.843Z,99.90
2018-09-13T10:52:37.146Z,99.90
2018-09-13T10:55:07.867Z,99.90
2018-09-13T10:57:45.382Z,99.90
2018-09-13T11:00:16.716Z,99.90
2018-09-13T11:02:47.512Z,99.90
2018-09-13T11:05:18.870Z,99.90
2018-09-13T11:07:49.948Z,99.90
2018-09-13T11:10:20.813Z,99.90
2018-09-13T11:12:59.778Z,99.90
2018-09-13T11:15:35.267Z,99.90
2018-09-13T11:18:07.470Z,99.90
2018-09-13T11:20:47.267Z,99.90
2018-09-13T11:23:18.208Z,99.90
2018-09-13T11:25:49.280Z,99.90
2018-09-13T11:28:19.920Z,99.90
2018-09-13T11:30:55.266Z,99.90
2018-09-13T11:33:26.047Z,99.90
2018-09-13T11:35:56.735Z,99.90
2018-09-13T11:38:27.418Z,99.90
2018-09-13T11:40:59.471Z,99.90
2018-09-13T11:43:32.679Z,99.90
2018-09-13T11:46:03.538Z,99.90
2018-09-13T11:48:34.323Z,99.90
2018-09-13T11:51:05.105Z,99.90
2018-09-13T11:53:37.525Z,99.90
2018-09-13T11:56:08.539Z,99.90
2018-09-13T11:58:40.098Z,99.90
2018-09-13T12:01:14.911Z,99.90
2018-09-13T12:03:45.902Z,99.90
2018-09-13T12:06:16.554Z,99.90
2018-09-13T12:08:47.287Z,99.90
2018-09-13T12:11:18.300Z,99.90
2018-09-13T12:13:50.203Z,99.90
2018-09-13T12:16:21.022Z,99.90
2018-09-13T12:18:52.754Z,99.90
2018-09-13T12:21:23.545Z,99.90
2018-09-13T12:23:54.285Z,99.90
2018-09-13T12:26:25.197Z,99.90
2018-09-13T12:28:55.863Z,99.90
2018-09-13T12:31:29.629Z,99.90
2018-09-13T12:34:04.189Z,99.90
2018-09-13T12:36:35.547Z,99.90
2018-09-13T12:39:07.327Z,99.90
2018-09-13T12:41:38.057Z,99.90
2018-09-13T12:44:08.910Z,99.90
2018-09-13T12:46:39.659Z,99.90
2018-09-13T12:49:10.575Z,99.90
2018-09-13T12:51:41.547Z,99.90
2018-09-13T12:54:12.690Z,99.90
2018-09-13T12:56:43.511Z,99.90
2018-09-13T12:59:16.409Z,99.90
2018-09-13T13:01:53.218Z,99.90
2018-09-13T13:04:25.027Z,99.90
2018-09-13T13:06:55.751Z,99.90
2018-09-13T13:09:27.617Z,99.90
2018-09-13T13:11:58.361Z,99.90
2018-09-13T13:14:30.511Z,99.90
2018-09-13T13:17:01.366Z,99.90
2018-09-13T13:19:35.069Z,99.90
2018-09-13T13:22:06.723Z,99.90
2018-09-13T13:24:39.152Z,99.90
2018-09-13T13:27:09.913Z,99.90
2018-09-13T13:29:40.793Z,99.90
2018-09-13T13:32:15.525Z,99.90
2018-09-13T13:34:49.462Z,99.90
2018-09-13T13:37:20.617Z,99.90
2018-09-13T13:39:51.493Z,99.90
2018-09-13T13:42:22.295Z,99.90
2018-09-13T13:44:53.227Z,99.90
2018-09-13T13:47:27.544Z,99.90
2018-09-13T13:50:03.051Z,99.90
2018-09-13T13:52:33.796Z,99.90
2018-09-13T13:55:07.456Z,99.90
2018-09-13T13:57:38.320Z,99.90
2018-09-13T14:00:10.982Z,99.90
2018-09-13T14:02:41.727Z,99.90
2018-09-13T14:05:13.444Z,99.90
2018-09-13T14:07:44.375Z,99.90
2018-09-13T14:10:15.090Z,99.90
2018-09-13T14:12:49.003Z,99.90
2018-09-13T14:15:19.941Z,99.90
2018-09-13T14:17:51.791Z,99.90
2018-09-13T14:20:22.949Z,99.90
2018-09-13T14:22:53.982Z,99.90
2018-09-13T14:25:24.872Z,99.90
2018-09-13T14:27:55.786Z,99.90
2018-09-13T14:30:26.499Z,99.90
2018-09-13T14:32:57.306Z,99.90
2018-09-13T14:35:29.649Z,99.90
2018-09-13T14:38:00.789Z,99.90
2018-09-13T14:40:32.241Z,99.90
2018-09-13T14:43:04.853Z,99.90
2018-09-13T14:45:35.481Z,99.90
2018-09-13T14:48:07.676Z,99.90
2018-09-13T14:50:38.304Z,99.90
2018-09-13T14:53:09.448Z,99.90
2018-09-13T14:55:40.405Z,99.90
2018-09-13T14:58:11.137Z,99.90
2018-09-13T15:00:44.190Z,99.90
2018-09-13T15:03:15.088Z,99.90
2018-09-13T15:05:45.710Z,99.90
2018-09-13T15:08:16.746Z,99.90
2018-09-13T15:10:48.392Z,99.90
2018-09-13T15:13:21.643Z,99.90
2018-09-13T15:15:52.799Z,99.90
2018-09-13T15:18:24.863Z,99.90
2018-09-13T15:20:55.460Z,99.90
2018-09-13T15:23:26.556Z,99.90
2018-09-13T15:25:57.270Z,99.90
2018-09-13T15:28:30.109Z,99.90
2018-09-13T15:31:01.034Z,99.90
2018-09-13T15:33:32.017Z,99.90
2018-09-13T15:36:03.655Z,99.90
2018-09-13T15:38:34.384Z,99.90
2018-09-13T15:41:07.357Z,99.90
2018-09-13T15:43:38.336Z,99.90
2018-09-13T15:46:10.672Z,99.90
2018-09-13T15:48:43.006Z,99.90
2018-09-13T15:51:13.867Z,99.90
2018-09-13T15:53:48.428Z,99.90
2018-09-13T15:56:20.336Z,99.90
2018-09-13T15:58:51.418Z,99.90
2018-09-13T16:01:22.312Z,99.90
2018-09-13T16:03:54.198Z,99.90
2018-09-13T16:06:24.935Z,99.90
2018-09-13T16:08:55.761Z,99.90
2018-09-13T16:11:30.718Z,99.90
2018-09-13T16:14:01.848Z,99.90
2018-09-13T16:16:38.602Z,99.90
2018-09-13T16:19:09.589Z,99.90
2018-09-13T16:21:41.204Z,99.90
2018-09-13T16:24:12.119Z,99.90
2018-09-13T16:26:42.886Z,99.90
2018-09-13T16:29:13.848Z,99.90
2018-09-13T16:31:44.628Z,99.90
2018-09-13T16:34:15.389Z,99.90
2018-09-13T16:36:50.591Z,99.90
2018-09-13T16:39:26.848Z,99.90
2018-09-13T16:42:02.134Z,99.90
2018-09-13T16:44:37.341Z,99.90
2018-09-13T16:47:13.080Z,99.90
2018-09-13T16:49:43.821Z,99.90
2018-09-13T16:52:15.807Z,99.90
2018-09-13T16:54:46.551Z,99.90
2018-09-13T16:57:17.831Z,99.90
2018-09-13T16:59:48.588Z,97.80
2018-09-13T17:02:19.553Z,99.90
2018-09-13T17:04:50.715Z,99.90
2018-09-13T17:07:23.192Z,99.90
2018-09-13T17:09:54.959Z,96.10
2018-09-13T17:12:26.480Z,94.60
2018-09-13T17:14:57.643Z,87.40
2018-09-13T17:17:28.545Z,95.00
2018-09-13T17:19:59.790Z,94.40
2018-09-13T17:22:32.988Z,96.30
2018-09-13T17:25:06.971Z,98.70
2018-09-13T17:27:37.868Z,98.20
2018-09-13T17:30:08.680Z,99.90
2018-09-13T17:32:39.554Z,99.20
2018-09-13T17:35:10.241Z,97.90
2018-09-13T17:37:41.844Z,93.50
2018-09-13T17:40:12.541Z,93.60
2018-09-13T17:42:43.583Z,90.70
2018-09-13T17:45:14.401Z,89.30
2018-09-13T17:47:48.209Z,90.40
2018-09-13T17:50:19.205Z,91.50
2018-09-13T17:52:50.387Z,92.30
2018-09-13T17:55:21.038Z,91.60
2018-09-13T17:57:52.208Z,93.80
2018-09-13T18:00:25.798Z,95.20
2018-09-13T18:02:57.611Z,96.10
2018-09-13T18:05:28.391Z,90.70
2018-09-13T18:07:59.276Z,93.40
2018-09-13T18:10:30.017Z,87.50
2018-09-13T18:13:03.049Z,83.20
2018-09-13T18:15:37.469Z,79.80
2018-09-13T18:18:08.726Z,77.80
2018-09-13T18:20:43.607Z,78.30
2018-09-13T18:23:14.796Z,72.60
2018-09-13T18:25:45.535Z,70.60
2018-09-13T18:28:19.977Z,69.50
2018-09-13T18:30:53.179Z,66.70
2018-09-13T18:33:26.216Z,66.70
2018-09-13T18:36:00.292Z,70.50
2018-09-13T18:38:39.200Z,69.80
2018-09-13T18:41:11.964Z,67.50
2018-09-13T18:43:46.281Z,68.40
2018-09-13T18:46:19.512Z,69.80
2018-09-13T18:48:52.152Z,71.70
2018-09-13T18:51:24.566Z,73.10
2018-09-13T18:53:57.208Z,75.40
2018-09-13T18:56:30.095Z,78.70
2018-09-13T18:59:06.254Z,80.10
2018-09-13T19:01:39.046Z,77.10
2018-09-13T19:04:11.735Z,79.50
2018-09-13T19:06:44.199Z,87.30
2018-09-13T19:09:18.216Z,97.50
2018-09-13T19:11:50.669Z,99.90
2018-09-13T19:14:23.425Z,99.90
2018-09-13T19:16:57.068Z,99.90
2018-09-13T19:19:32.214Z,99.90
2018-09-13T19:22:11.372Z,99.90
2018-09-13T19:24:47.388Z,99.90
2018-09-13T19:27:19.737Z,99.90
2018-09-13T19:29:54.154Z,99.90
2018-09-13T19:32:27.852Z,99.90
2018-09-13T19:35:00.393Z,99.90
2018-09-13T19:37:35.058Z,99.90
2018-09-13T19:40:14.492Z,99.90
2018-09-13T19:42:47.910Z,99.90
2018-09-13T19:45:20.702Z,99.90
2018-09-13T19:47:54.255Z,99.90
2018-09-13T19:50:26.742Z,99.90
2018-09-13T19:52:59.405Z,99.90
2018-09-13T19:55:32.109Z,99.90
2018-09-13T19:58:04.797Z,99.90
2018-09-13T20:00:37.855Z,99.90
2018-09-13T20:03:10.664Z,99.90
2018-09-13T20:05:43.431Z,99.90
2018-09-13T20:08:15.792Z,99.90
2018-09-13T20:10:48.340Z,99.90
2018-09-13T20:13:20.992Z,99.90
2018-09-13T20:15:53.752Z,99.90
2018-09-13T20:18:26.583Z,99.90
2018-09-13T20:20:59.560Z,99.90
2018-09-13T20:23:32.170Z,99.90
2018-09-13T20:26:04.778Z,99.90
2018-09-13T20:28:37.452Z,99.90
2018-09-13T20:31:10.436Z,99.90
2018-09-13T20:33:42.963Z,99.90
2018-09-13T20:36:25.932Z,99.90
2018-09-13T20:38:58.479Z,99.90
2018-09-13T20:41:31.978Z,99.90
2018-09-13T20:44:04.977Z,99.90
2018-09-13T20:46:38.867Z,99.90
2018-09-13T20:49:11.296Z,99.90
2018-09-13T20:51:43.875Z,99.90
2018-09-13T20:54:16.292Z,99.90
2018-09-13T20:56:48.943Z,99.90
2018-09-13T20:59:21.388Z,99.90
2018-09-13T21:01:54.212Z,99.90
2018-09-13T21:04:26.724Z,99.90
2018-09-13T21:06:59.264Z,99.90
2018-09-13T21:09:31.700Z,99.90
2018-09-13T21:12:05.888Z,99.90
2018-09-13T21:14:38.404Z,99.90
2018-09-13T21:17:11.099Z,99.90
2018-09-13T21:19:43.581Z,99.90
2018-09-13T21:22:16.736Z,99.90
2018-09-13T21:24:49.162Z,99.90
2018-09-13T21:30:14.195Z,99.90
2018-09-13T21:32:46.859Z,99.90
2018-09-13T21:35:19.792Z,99.90
2018-09-13T21:37:52.395Z,99.90
2018-09-13T21:40:24.899Z,99.90
2018-09-13T21:42:57.575Z,99.90
2018-09-13T21:45:29.971Z,99.90
2018-09-13T21:48:02.545Z,99.90
2018-09-13T21:50:34.948Z,99.90
2018-09-13T21:53:07.516Z,99.90
2018-09-13T21:55:40.023Z,99.90
2018-09-13T21:58:12.529Z,99.90
2018-09-13T22:00:45.044Z,99.90
2018-09-13T22:03:17.757Z,99.90
2018-09-13T22:05:50.594Z,99.90
2018-09-13T22:08:23.365Z,99.90
2018-09-13T22:10:55.863Z,99.90
2018-09-13T22:13:32.452Z,99.90
2018-09-13T22:16:05.191Z,99.90
2018-09-13T22:18:38.252Z,99.90
2018-09-13T22:21:10.755Z,99.90
2018-09-13T22:23:43.736Z,99.90
2018-09-13T22:26:17.438Z,99.90
2018-09-13T22:28:50.767Z,99.90
2018-09-13T22:31:23.968Z,99.90
2018-09-13T22:33:57.350Z,99.90
2018-09-13T22:36:30.731Z,99.90
2018-09-13T22:39:03.664Z,99.90
2018-09-13T22:41:36.194Z,99.90
2018-09-13T22:44:08.909Z,99.90
2018-09-13T22:46:41.537Z,99.90
2018-09-13T22:49:13.996Z,99.90
2018-09-13T22:51:46.516Z,99.90
2018-09-13T22:54:19.051Z,99.90
2018-09-13T22:56:51.983Z,99.90
2018-09-13T22:59:24.615Z,99.90
2018-09-13T23:01:57.363Z,99.90
2018-09-13T23:04:29.967Z,99.90
2018-09-13T23:07:02.520Z,99.90
2018-09-13T23:09:35.115Z,99.90
2018-09-13T23:12:07.759Z,99.90
2018-09-13T23:14:40.284Z,99.90
2018-09-13T23:17:12.787Z,99.90
2018-09-13T23:19:45.175Z,99.90
2018-09-13T23:22:17.824Z,99.90
2018-09-13T23:24:50.568Z,99.90
2018-09-13T23:27:23.156Z,99.90
2018-09-13T23:29:55.676Z,99.90
2018-09-13T23:32:28.361Z,99.90
2018-09-13T23:35:00.806Z,99.90
2018-09-13T23:37:33.340Z,99.90
2018-09-13T23:40:05.997Z,99.90
2018-09-13T23:42:38.673Z,99.90
2018-09-13T23:45:11.488Z,99.90
2018-09-13T23:47:44.016Z,99.90
2018-09-13T23:50:16.664Z,99.90
2018-09-13T23:52:49.065Z,99.90
2018-09-13T23:55:21.584Z,99.90
2018-09-13T23:57:54.000Z,99.90
